sensor_id;sensor_type;location;lat;lon;timestamp;P1;durP1;ratioP1;P2;durP2;ratioP2
59145;SDS011;44928;53.074;6.646;2022-11-15T00:00:49;19.30;;;13.65;;
59145;SDS011;44928;53.074;6.646;2022-11-15T00:03:16;21.98;;;14.63;;
59145;SDS011;44928;53.074;6.646;2022-11-15T00:05:43;22.88;;;15.02;;
59145;SDS011;44928;53.074;6.646;2022-11-15T00:08:09;19.23;;;13.60;;
59145;SDS011;44928;53.074;6.646;2022-11-15T00:10:35;21.90;;;13.45;;
59145;SDS011;44928;53.074;6.646;2022-11-15T00:13:08;21.27;;;14.18;;
59145;SDS011;44928;53.074;6.646;2022-11-15T00:15:36;20.27;;;13.73;;
59145;SDS011;44928;53.074;6.646;2022-11-15T00:18:03;21.10;;;13.70;;
59145;SDS011;44928;53.074;6.646;2022-11-15T00:20:29;21.75;;;14.02;;
59145;SDS011;44928;53.074;6.646;2022-11-15T00:22:55;23.58;;;14.63;;
59145;SDS011;44928;53.074;6.646;2022-11-15T00:25:21;21.92;;;14.50;;
59145;SDS011;44928;53.074;6.646;2022-11-15T00:27:47;20.45;;;14.10;;
59145;SDS011;44928;53.074;6.646;2022-11-15T00:30:13;21.48;;;14.80;;
59145;SDS011;44928;53.074;6.646;2022-11-15T00:32:38;21.55;;;14.20;;
59145;SDS011;44928;53.074;6.646;2022-11-15T00:35:04;22.13;;;13.88;;
59145;SDS011;44928;53.074;6.646;2022-11-15T00:37:30;22.10;;;14.02;;
59145;SDS011;44928;53.074;6.646;2022-11-15T00:39:56;19.05;;;13.27;;
59145;SDS011;44928;53.074;6.646;2022-11-15T00:42:22;21.80;;;14.73;;
59145;SDS011;44928;53.074;6.646;2022-11-15T00:44:47;22.92;;;14.68;;
59145;SDS011;44928;53.074;6.646;2022-11-15T00:47:13;22.08;;;15.80;;
59145;SDS011;44928;53.074;6.646;2022-11-15T00:49:39;23.65;;;15.60;;
59145;SDS011;44928;53.074;6.646;2022-11-15T00:52:06;22.05;;;15.35;;
59145;SDS011;44928;53.074;6.646;2022-11-15T00:54:31;22.15;;;16.08;;
59145;SDS011;44928;53.074;6.646;2022-11-15T00:56:57;24.13;;;14.88;;
59145;SDS011;44928;53.074;6.646;2022-11-15T00:59:23;20.05;;;13.93;;
59145;SDS011;44928;53.074;6.646;2022-11-15T01:01:49;20.20;;;15.10;;
59145;SDS011;44928;53.074;6.646;2022-11-15T01:04:14;21.05;;;14.80;;
59145;SDS011;44928;53.074;6.646;2022-11-15T01:06:40;21.05;;;15.25;;
59145;SDS011;44928;53.074;6.646;2022-11-15T01:09:06;18.30;;;12.77;;
59145;SDS011;44928;53.074;6.646;2022-11-15T01:11:31;21.08;;;14.43;;
59145;SDS011;44928;53.074;6.646;2022-11-15T01:13:57;20.13;;;13.50;;
59145;SDS011;44928;53.074;6.646;2022-11-15T01:16:23;23.50;;;15.93;;
59145;SDS011;44928;53.074;6.646;2022-11-15T01:18:49;24.42;;;16.30;;
59145;SDS011;44928;53.074;6.646;2022-11-15T01:21:17;25.38;;;16.58;;
59145;SDS011;44928;53.074;6.646;2022-11-15T01:23:44;24.83;;;16.63;;
59145;SDS011;44928;53.074;6.646;2022-11-15T01:26:11;23.50;;;15.88;;
59145;SDS011;44928;53.074;6.646;2022-11-15T01:28:39;25.00;;;16.23;;
59145;SDS011;44928;53.074;6.646;2022-11-15T01:31:07;22.13;;;15.32;;
59145;SDS011;44928;53.074;6.646;2022-11-15T01:33:37;23.35;;;15.85;;
59145;SDS011;44928;53.074;6.646;2022-11-15T01:36:03;21.20;;;14.43;;
59145;SDS011;44928;53.074;6.646;2022-11-15T01:38:30;23.52;;;15.32;;
59145;SDS011;44928;53.074;6.646;2022-11-15T01:40:56;23.38;;;14.88;;
59145;SDS011;44928;53.074;6.646;2022-11-15T01:43:29;24.20;;;15.38;;
59145;SDS011;44928;53.074;6.646;2022-11-15T01:46:44;22.80;;;15.63;;
59145;SDS011;44928;53.074;6.646;2022-11-15T01:48:51;23.73;;;14.82;;
59145;SDS011;44928;53.074;6.646;2022-11-15T01:51:20;24.42;;;14.75;;
59145;SDS011;44928;53.074;6.646;2022-11-15T01:53:50;23.38;;;15.45;;
59145;SDS011;44928;53.074;6.646;2022-11-15T01:56:21;24.30;;;14.98;;
59145;SDS011;44928;53.074;6.646;2022-11-15T01:58:50;22.45;;;14.20;;
59145;SDS011;44928;53.074;6.646;2022-11-15T02:01:20;22.58;;;15.07;;
59145;SDS011;44928;53.074;6.646;2022-11-15T02:04:01;24.85;;;14.45;;
59145;SDS011;44928;53.074;6.646;2022-11-15T02:06:35;24.38;;;14.38;;
59145;SDS011;44928;53.074;6.646;2022-11-15T02:09:02;25.05;;;15.35;;
59145;SDS011;44928;53.074;6.646;2022-11-15T02:11:27;26.45;;;15.63;;
59145;SDS011;44928;53.074;6.646;2022-11-15T02:13:54;24.40;;;15.45;;
59145;SDS011;44928;53.074;6.646;2022-11-15T02:33:11;25.17;;;15.13;;
59145;SDS011;44928;53.074;6.646;2022-11-15T02:38:53;23.98;;;15.75;;
59145;SDS011;44928;53.074;6.646;2022-11-15T02:41:31;26.90;;;15.52;;
59145;SDS011;44928;53.074;6.646;2022-11-15T02:46:36;27.02;;;15.80;;
59145;SDS011;44928;53.074;6.646;2022-11-15T02:49:28;25.95;;;16.77;;
59145;SDS011;44928;53.074;6.646;2022-11-15T02:51:57;25.75;;;14.88;;
59145;SDS011;44928;53.074;6.646;2022-11-15T02:54:24;25.90;;;15.40;;
59145;SDS011;44928;53.074;6.646;2022-11-15T02:56:53;26.35;;;15.68;;
59145;SDS011;44928;53.074;6.646;2022-11-15T02:59:29;24.67;;;15.40;;
59145;SDS011;44928;53.074;6.646;2022-11-15T03:02:22;25.15;;;15.40;;
59145;SDS011;44928;53.074;6.646;2022-11-15T03:13:38;29.25;;;15.65;;
59145;SDS011;44928;53.074;6.646;2022-11-15T03:19:20;24.55;;;14.77;;
59145;SDS011;44928;53.074;6.646;2022-11-15T03:21:54;25.25;;;15.60;;
59145;SDS011;44928;53.074;6.646;2022-11-15T03:24:21;25.67;;;15.00;;
59145;SDS011;44928;53.074;6.646;2022-11-15T03:26:50;30.27;;;16.58;;
59145;SDS011;44928;53.074;6.646;2022-11-15T03:29:22;26.00;;;15.70;;
59145;SDS011;44928;53.074;6.646;2022-11-15T03:31:53;28.17;;;15.50;;
59145;SDS011;44928;53.074;6.646;2022-11-15T03:34:26;31.83;;;16.35;;
59145;SDS011;44928;53.074;6.646;2022-11-15T03:36:55;30.77;;;16.10;;
59145;SDS011;44928;53.074;6.646;2022-11-15T03:39:21;27.42;;;16.02;;
59145;SDS011;44928;53.074;6.646;2022-11-15T03:47:16;31.83;;;17.38;;
59145;SDS011;44928;53.074;6.646;2022-11-15T03:49:51;32.70;;;17.27;;
59145;SDS011;44928;53.074;6.646;2022-11-15T03:52:21;30.50;;;17.10;;
59145;SDS011;44928;53.074;6.646;2022-11-15T03:54:56;35.05;;;16.65;;
59145;SDS011;44928;53.074;6.646;2022-11-15T03:57:24;31.30;;;16.95;;
59145;SDS011;44928;53.074;6.646;2022-11-15T03:59:50;31.33;;;17.52;;
59145;SDS011;44928;53.074;6.646;2022-11-15T04:02:15;34.28;;;17.38;;
59145;SDS011;44928;53.074;6.646;2022-11-15T04:04:41;37.38;;;18.20;;
59145;SDS011;44928;53.074;6.646;2022-11-15T04:07:07;37.15;;;18.52;;
59145;SDS011;44928;53.074;6.646;2022-11-15T04:09:33;34.92;;;18.35;;
59145;SDS011;44928;53.074;6.646;2022-11-15T04:12:18;37.90;;;18.30;;
59145;SDS011;44928;53.074;6.646;2022-11-15T04:14:59;37.95;;;18.98;;
59145;SDS011;44928;53.074;6.646;2022-11-15T04:17:40;37.47;;;19.10;;
59145;SDS011;44928;53.074;6.646;2022-11-15T04:20:07;34.15;;;17.98;;
59145;SDS011;44928;53.074;6.646;2022-11-15T04:26:01;34.53;;;18.60;;
59145;SDS011;44928;53.074;6.646;2022-11-15T04:28:29;38.83;;;19.20;;
59145;SDS011;44928;53.074;6.646;2022-11-15T04:30:55;40.53;;;20.10;;
59145;SDS011;44928;53.074;6.646;2022-11-15T04:33:21;44.30;;;19.65;;
59145;SDS011;44928;53.074;6.646;2022-11-15T04:35:47;37.28;;;19.30;;
59145;SDS011;44928;53.074;6.646;2022-11-15T04:38:34;41.83;;;20.90;;
59145;SDS011;44928;53.074;6.646;2022-11-15T04:41:00;39.90;;;20.33;;
59145;SDS011;44928;53.074;6.646;2022-11-15T04:43:26;42.33;;;22.05;;
59145;SDS011;44928;53.074;6.646;2022-11-15T04:45:52;42.42;;;21.00;;
59145;SDS011;44928;53.074;6.646;2022-11-15T04:48:18;43.95;;;21.15;;
59145;SDS011;44928;53.074;6.646;2022-11-15T04:50:44;44.13;;;21.08;;
59145;SDS011;44928;53.074;6.646;2022-11-15T04:53:12;39.05;;;21.10;;
59145;SDS011;44928;53.074;6.646;2022-11-15T04:55:38;45.78;;;23.30;;
59145;SDS011;44928;53.074;6.646;2022-11-15T04:58:03;43.15;;;21.88;;
59145;SDS011;44928;53.074;6.646;2022-11-15T05:00:29;44.67;;;21.73;;
59145;SDS011;44928;53.074;6.646;2022-11-15T05:02:55;42.88;;;21.95;;
59145;SDS011;44928;53.074;6.646;2022-11-15T05:05:40;45.97;;;23.65;;
59145;SDS011;44928;53.074;6.646;2022-11-15T05:08:06;45.38;;;21.98;;
59145;SDS011;44928;53.074;6.646;2022-11-15T05:10:32;43.13;;;21.50;;
59145;SDS011;44928;53.074;6.646;2022-11-15T05:12:58;51.00;;;23.52;;
59145;SDS011;44928;53.074;6.646;2022-11-15T05:15:24;46.70;;;22.88;;
59145;SDS011;44928;53.074;6.646;2022-11-15T05:17:49;49.28;;;24.13;;
59145;SDS011;44928;53.074;6.646;2022-11-15T05:20:15;47.72;;;24.38;;
59145;SDS011;44928;53.074;6.646;2022-11-15T05:22:41;50.05;;;24.80;;
59145;SDS011;44928;53.074;6.646;2022-11-15T05:25:07;46.83;;;23.73;;
59145;SDS011;44928;53.074;6.646;2022-11-15T05:27:34;50.90;;;25.27;;
59145;SDS011;44928;53.074;6.646;2022-11-15T05:29:59;53.97;;;26.40;;
59145;SDS011;44928;53.074;6.646;2022-11-15T05:32:25;53.92;;;26.70;;
59145;SDS011;44928;53.074;6.646;2022-11-15T05:34:52;55.92;;;25.92;;
59145;SDS011;44928;53.074;6.646;2022-11-15T05:37:19;50.72;;;26.10;;
59145;SDS011;44928;53.074;6.646;2022-11-15T05:39:45;52.50;;;26.00;;
59145;SDS011;44928;53.074;6.646;2022-11-15T05:42:12;54.03;;;24.90;;
59145;SDS011;44928;53.074;6.646;2022-11-15T05:44:41;58.50;;;26.88;;
59145;SDS011;44928;53.074;6.646;2022-11-15T05:47:12;52.30;;;24.85;;
59145;SDS011;44928;53.074;6.646;2022-11-15T05:49:42;56.30;;;25.77;;
59145;SDS011;44928;53.074;6.646;2022-11-15T05:52:09;58.15;;;26.85;;
59145;SDS011;44928;53.074;6.646;2022-11-15T05:54:38;55.67;;;26.02;;
59145;SDS011;44928;53.074;6.646;2022-11-15T05:57:05;55.08;;;25.60;;
59145;SDS011;44928;53.074;6.646;2022-11-15T05:59:31;55.47;;;27.55;;
59145;SDS011;44928;53.074;6.646;2022-11-15T06:01:57;54.80;;;26.92;;
59145;SDS011;44928;53.074;6.646;2022-11-15T06:04:23;50.13;;;24.95;;
59145;SDS011;44928;53.074;6.646;2022-11-15T06:06:49;52.08;;;26.45;;
59145;SDS011;44928;53.074;6.646;2022-11-15T06:09:14;52.88;;;26.10;;
59145;SDS011;44928;53.074;6.646;2022-11-15T06:11:40;46.40;;;26.17;;
59145;SDS011;44928;53.074;6.646;2022-11-15T06:14:06;54.47;;;25.63;;
59145;SDS011;44928;53.074;6.646;2022-11-15T06:16:32;51.83;;;26.65;;
59145;SDS011;44928;53.074;6.646;2022-11-15T06:18:57;52.03;;;26.58;;
59145;SDS011;44928;53.074;6.646;2022-11-15T06:21:23;48.05;;;25.70;;
59145;SDS011;44928;53.074;6.646;2022-11-15T06:23:49;47.33;;;25.88;;
59145;SDS011;44928;53.074;6.646;2022-11-15T06:26:15;54.33;;;25.55;;
59145;SDS011;44928;53.074;6.646;2022-11-15T06:28:41;51.85;;;26.40;;
59145;SDS011;44928;53.074;6.646;2022-11-15T06:31:08;55.10;;;26.70;;
59145;SDS011;44928;53.074;6.646;2022-11-15T06:33:36;49.67;;;27.33;;
59145;SDS011;44928;53.074;6.646;2022-11-15T06:36:03;51.28;;;26.35;;
59145;SDS011;44928;53.074;6.646;2022-11-15T06:38:33;49.75;;;26.10;;
59145;SDS011;44928;53.074;6.646;2022-11-15T06:41:02;45.78;;;26.35;;
59145;SDS011;44928;53.074;6.646;2022-11-15T06:43:31;49.35;;;25.42;;
59145;SDS011;44928;53.074;6.646;2022-11-15T06:45:57;49.90;;;25.73;;
59145;SDS011;44928;53.074;6.646;2022-11-15T06:48:24;50.30;;;25.40;;
59145;SDS011;44928;53.074;6.646;2022-11-15T06:50:51;48.63;;;25.08;;
59145;SDS011;44928;53.074;6.646;2022-11-15T06:53:17;46.53;;;24.58;;
59145;SDS011;44928;53.074;6.646;2022-11-15T06:55:43;52.08;;;26.55;;
59145;SDS011;44928;53.074;6.646;2022-11-15T06:58:09;48.78;;;25.60;;
59145;SDS011;44928;53.074;6.646;2022-11-15T07:00:35;51.28;;;24.85;;
59145;SDS011;44928;53.074;6.646;2022-11-15T07:03:01;47.72;;;25.80;;
59145;SDS011;44928;53.074;6.646;2022-11-15T07:05:27;47.67;;;24.70;;
59145;SDS011;44928;53.074;6.646;2022-11-15T07:07:54;54.30;;;25.77;;
59145;SDS011;44928;53.074;6.646;2022-11-15T07:10:21;46.28;;;25.75;;
59145;SDS011;44928;53.074;6.646;2022-11-15T07:12:49;48.40;;;24.08;;
59145;SDS011;44928;53.074;6.646;2022-11-15T07:15:16;45.40;;;23.83;;
59145;SDS011;44928;53.074;6.646;2022-11-15T07:17:42;47.83;;;24.52;;
59145;SDS011;44928;53.074;6.646;2022-11-15T07:20:08;47.60;;;24.90;;
59145;SDS011;44928;53.074;6.646;2022-11-15T07:22:35;46.60;;;24.83;;
59145;SDS011;44928;53.074;6.646;2022-11-15T07:25:00;48.67;;;24.17;;
59145;SDS011;44928;53.074;6.646;2022-11-15T07:27:26;48.13;;;24.55;;
59145;SDS011;44928;53.074;6.646;2022-11-15T07:29:52;46.25;;;23.80;;
59145;SDS011;44928;53.074;6.646;2022-11-15T07:32:18;43.80;;;24.10;;
59145;SDS011;44928;53.074;6.646;2022-11-15T07:34:43;42.83;;;24.52;;
59145;SDS011;44928;53.074;6.646;2022-11-15T07:37:11;42.38;;;23.77;;
59145;SDS011;44928;53.074;6.646;2022-11-15T07:39:37;45.83;;;23.13;;
59145;SDS011;44928;53.074;6.646;2022-11-15T07:42:03;41.38;;;23.10;;
59145;SDS011;44928;53.074;6.646;2022-11-15T07:44:47;43.00;;;23.98;;
59145;SDS011;44928;53.074;6.646;2022-11-15T07:47:13;40.05;;;22.67;;
59145;SDS011;44928;53.074;6.646;2022-11-15T07:49:39;43.42;;;23.35;;
59145;SDS011;44928;53.074;6.646;2022-11-15T07:52:04;41.35;;;23.27;;
59145;SDS011;44928;53.074;6.646;2022-11-15T07:54:30;40.40;;;22.48;;
59145;SDS011;44928;53.074;6.646;2022-11-15T07:56:56;41.50;;;22.67;;
59145;SDS011;44928;53.074;6.646;2022-11-15T07:59:22;36.85;;;22.20;;
59145;SDS011;44928;53.074;6.646;2022-11-15T08:01:47;36.67;;;21.27;;
59145;SDS011;44928;53.074;6.646;2022-11-15T08:04:13;37.33;;;21.92;;
59145;SDS011;44928;53.074;6.646;2022-11-15T08:06:39;37.65;;;21.45;;
59145;SDS011;44928;53.074;6.646;2022-11-15T08:09:05;37.72;;;20.08;;
59145;SDS011;44928;53.074;6.646;2022-11-15T08:11:30;31.95;;;19.73;;
59145;SDS011;44928;53.074;6.646;2022-11-15T08:13:56;33.00;;;20.23;;
59145;SDS011;44928;53.074;6.646;2022-11-15T08:16:22;35.25;;;20.23;;
59145;SDS011;44928;53.074;6.646;2022-11-15T08:18:48;34.78;;;20.58;;
59145;SDS011;44928;53.074;6.646;2022-11-15T08:21:14;32.88;;;20.30;;
59145;SDS011;44928;53.074;6.646;2022-11-15T08:23:45;38.58;;;20.52;;
59145;SDS011;44928;53.074;6.646;2022-11-15T08:26:11;33.95;;;20.33;;
59145;SDS011;44928;53.074;6.646;2022-11-15T08:28:37;33.88;;;21.02;;
59145;SDS011;44928;53.074;6.646;2022-11-15T08:31:03;32.10;;;20.90;;
59145;SDS011;44928;53.074;6.646;2022-11-15T08:33:29;28.77;;;19.30;;
59145;SDS011;44928;53.074;6.646;2022-11-15T08:35:59;30.95;;;19.08;;
59145;SDS011;44928;53.074;6.646;2022-11-15T08:38:25;32.15;;;19.92;;
59145;SDS011;44928;53.074;6.646;2022-11-15T08:40:54;37.28;;;21.35;;
59145;SDS011;44928;53.074;6.646;2022-11-15T08:43:27;30.52;;;18.35;;
59145;SDS011;44928;53.074;6.646;2022-11-15T08:45:55;28.42;;;18.55;;
59145;SDS011;44928;53.074;6.646;2022-11-15T08:48:21;30.10;;;17.63;;
59145;SDS011;44928;53.074;6.646;2022-11-15T08:50:47;31.30;;;18.85;;
59145;SDS011;44928;53.074;6.646;2022-11-15T08:53:13;26.15;;;17.63;;
59145;SDS011;44928;53.074;6.646;2022-11-15T08:55:39;28.95;;;18.08;;
59145;SDS011;44928;53.074;6.646;2022-11-15T08:58:05;27.23;;;17.30;;
59145;SDS011;44928;53.074;6.646;2022-11-15T09:00:32;26.48;;;16.52;;
59145;SDS011;44928;53.074;6.646;2022-11-15T09:02:58;27.38;;;18.02;;
59145;SDS011;44928;53.074;6.646;2022-11-15T09:05:25;32.78;;;17.13;;
59145;SDS011;44928;53.074;6.646;2022-11-15T09:07:54;24.08;;;17.40;;
59145;SDS011;44928;53.074;6.646;2022-11-15T09:10:20;31.90;;;18.13;;
59145;SDS011;44928;53.074;6.646;2022-11-15T09:12:46;28.10;;;18.48;;
59145;SDS011;44928;53.074;6.646;2022-11-15T09:15:15;28.52;;;17.15;;
59145;SDS011;44928;53.074;6.646;2022-11-15T09:17:41;25.02;;;16.42;;
59145;SDS011;44928;53.074;6.646;2022-11-15T09:20:08;27.40;;;17.60;;
59145;SDS011;44928;53.074;6.646;2022-11-15T09:22:34;29.25;;;17.33;;
59145;SDS011;44928;53.074;6.646;2022-11-15T09:25:01;25.48;;;16.90;;
59145;SDS011;44928;53.074;6.646;2022-11-15T09:27:31;23.10;;;16.30;;
59145;SDS011;44928;53.074;6.646;2022-11-15T09:29:57;22.23;;;16.17;;
59145;SDS011;44928;53.074;6.646;2022-11-15T09:32:23;23.77;;;16.15;;
59145;SDS011;44928;53.074;6.646;2022-11-15T09:34:49;24.42;;;16.50;;
59145;SDS011;44928;53.074;6.646;2022-11-15T09:37:15;23.88;;;15.82;;
59145;SDS011;44928;53.074;6.646;2022-11-15T09:39:41;25.98;;;16.52;;
59145;SDS011;44928;53.074;6.646;2022-11-15T09:45:15;23.20;;;15.77;;
59145;SDS011;44928;53.074;6.646;2022-11-15T09:50:50;23.58;;;15.20;;
59145;SDS011;44928;53.074;6.646;2022-11-15T09:56:01;22.80;;;15.25;;
59145;SDS011;44928;53.074;6.646;2022-11-15T10:01:47;24.95;;;15.88;;
59145;SDS011;44928;53.074;6.646;2022-11-15T10:04:29;22.98;;;14.73;;
59145;SDS011;44928;53.074;6.646;2022-11-15T10:07:03;22.55;;;14.27;;
59145;SDS011;44928;53.074;6.646;2022-11-15T10:10:02;20.73;;;13.80;;
59145;SDS011;44928;53.074;6.646;2022-11-15T10:12:47;22.13;;;15.25;;
59145;SDS011;44928;53.074;6.646;2022-11-15T10:15:16;22.23;;;15.10;;
59145;SDS011;44928;53.074;6.646;2022-11-15T10:17:58;23.02;;;14.50;;
59145;SDS011;44928;53.074;6.646;2022-11-15T10:20:31;21.08;;;14.23;;
59145;SDS011;44928;53.074;6.646;2022-11-15T10:23:21;21.98;;;14.32;;
59145;SDS011;44928;53.074;6.646;2022-11-15T10:25:50;20.95;;;14.20;;
59145;SDS011;44928;53.074;6.646;2022-11-15T10:28:24;22.10;;;13.90;;
59145;SDS011;44928;53.074;6.646;2022-11-15T10:30:55;20.73;;;13.98;;
59145;SDS011;44928;53.074;6.646;2022-11-15T10:33:35;20.73;;;13.43;;
59145;SDS011;44928;53.074;6.646;2022-11-15T10:46:36;17.67;;;11.48;;
59145;SDS011;44928;53.074;6.646;2022-11-15T10:57:08;21.85;;;14.25;;
59145;SDS011;44928;53.074;6.646;2022-11-15T10:59:47;23.48;;;14.45;;
59145;SDS011;44928;53.074;6.646;2022-11-15T11:02:28;20.00;;;13.40;;
59145;SDS011;44928;53.074;6.646;2022-11-15T11:04:56;19.58;;;13.00;;
59145;SDS011;44928;53.074;6.646;2022-11-15T11:07:24;19.48;;;13.48;;
59145;SDS011;44928;53.074;6.646;2022-11-15T11:12:39;20.90;;;13.00;;
59145;SDS011;44928;53.074;6.646;2022-11-15T11:15:09;20.70;;;14.75;;
59145;SDS011;44928;53.074;6.646;2022-11-15T11:20:38;20.60;;;13.85;;
59145;SDS011;44928;53.074;6.646;2022-11-15T11:23:24;17.33;;;12.48;;
59145;SDS011;44928;53.074;6.646;2022-11-15T11:26:26;16.25;;;10.75;;
59145;SDS011;44928;53.074;6.646;2022-11-15T11:35:11;17.42;;;9.98;;
59145;SDS011;44928;53.074;6.646;2022-11-15T11:45:50;13.43;;;8.13;;
59145;SDS011;44928;53.074;6.646;2022-11-15T11:49:12;21.73;;;10.48;;
59145;SDS011;44928;53.074;6.646;2022-11-15T11:51:42;12.23;;;6.72;;
59145;SDS011;44928;53.074;6.646;2022-11-15T11:56:39;13.65;;;7.13;;
59145;SDS011;44928;53.074;6.646;2022-11-15T12:02:08;11.05;;;6.00;;
59145;SDS011;44928;53.074;6.646;2022-11-15T12:04:53;11.40;;;5.88;;
59145;SDS011;44928;53.074;6.646;2022-11-15T12:07:45;13.88;;;5.85;;
59145;SDS011;44928;53.074;6.646;2022-11-15T12:10:15;9.82;;;5.13;;
59145;SDS011;44928;53.074;6.646;2022-11-15T12:13:02;11.38;;;5.95;;
59145;SDS011;44928;53.074;6.646;2022-11-15T12:15:41;12.05;;;6.20;;
59145;SDS011;44928;53.074;6.646;2022-11-15T12:18:15;11.40;;;6.05;;
59145;SDS011;44928;53.074;6.646;2022-11-15T12:20:50;10.50;;;5.47;;
59145;SDS011;44928;53.074;6.646;2022-11-15T12:25:56;10.38;;;4.90;;
59145;SDS011;44928;53.074;6.646;2022-11-15T12:31:04;10.30;;;4.18;;
59145;SDS011;44928;53.074;6.646;2022-11-15T12:33:45;9.23;;;4.40;;
59145;SDS011;44928;53.074;6.646;2022-11-15T12:38:57;11.25;;;4.10;;
59145;SDS011;44928;53.074;6.646;2022-11-15T12:41:32;9.65;;;4.55;;
59145;SDS011;44928;53.074;6.646;2022-11-15T12:43:59;8.88;;;4.15;;
59145;SDS011;44928;53.074;6.646;2022-11-15T12:48:58;10.15;;;4.95;;
59145;SDS011;44928;53.074;6.646;2022-11-15T13:04:43;7.97;;;3.85;;
59145;SDS011;44928;53.074;6.646;2022-11-15T13:07:08;10.68;;;3.97;;
59145;SDS011;44928;53.074;6.646;2022-11-15T13:10:00;9.70;;;3.60;;
59145;SDS011;44928;53.074;6.646;2022-11-15T13:30:40;8.65;;;3.17;;
59145;SDS011;44928;53.074;6.646;2022-11-15T13:33:16;8.95;;;3.25;;
59145;SDS011;44928;53.074;6.646;2022-11-15T13:35:48;7.97;;;2.33;;
59145;SDS011;44928;53.074;6.646;2022-11-15T13:38:18;9.23;;;2.78;;
59145;SDS011;44928;53.074;6.646;2022-11-15T13:41:18;7.03;;;2.63;;
59145;SDS011;44928;53.074;6.646;2022-11-15T13:43:46;4.85;;;1.92;;
59145;SDS011;44928;53.074;6.646;2022-11-15T13:46:15;7.88;;;2.67;;
59145;SDS011;44928;53.074;6.646;2022-11-15T13:48:46;9.38;;;2.53;;
59145;SDS011;44928;53.074;6.646;2022-11-15T13:53:54;6.45;;;2.50;;
59145;SDS011;44928;53.074;6.646;2022-11-15T13:56:23;8.57;;;3.17;;
59145;SDS011;44928;53.074;6.646;2022-11-15T13:58:52;9.45;;;2.03;;
59145;SDS011;44928;53.074;6.646;2022-11-15T14:01:20;7.25;;;2.28;;
59145;SDS011;44928;53.074;6.646;2022-11-15T14:03:57;8.13;;;2.50;;
59145;SDS011;44928;53.074;6.646;2022-11-15T14:06:25;7.78;;;2.47;;
59145;SDS011;44928;53.074;6.646;2022-11-15T14:11:28;8.60;;;2.25;;
59145;SDS011;44928;53.074;6.646;2022-11-15T14:16:38;8.25;;;2.30;;
59145;SDS011;44928;53.074;6.646;2022-11-15T14:19:08;7.47;;;2.38;;
59145;SDS011;44928;53.074;6.646;2022-11-15T14:22:09;6.03;;;2.05;;
59145;SDS011;44928;53.074;6.646;2022-11-15T14:24:35;5.32;;;2.13;;
59145;SDS011;44928;53.074;6.646;2022-11-15T14:29:44;16.48;;;2.47;;
59145;SDS011;44928;53.074;6.646;2022-11-15T14:34:46;7.95;;;1.52;;
59145;SDS011;44928;53.074;6.646;2022-11-15T14:39:59;5.47;;;1.70;;
59145;SDS011;44928;53.074;6.646;2022-11-15T14:42:27;3.75;;;1.60;;
59145;SDS011;44928;53.074;6.646;2022-11-15T14:44:52;6.10;;;1.73;;
59145;SDS011;44928;53.074;6.646;2022-11-15T14:47:18;4.43;;;1.65;;
59145;SDS011;44928;53.074;6.646;2022-11-15T14:49:44;6.35;;;1.70;;
59145;SDS011;44928;53.074;6.646;2022-11-15T14:52:16;4.18;;;1.33;;
59145;SDS011;44928;53.074;6.646;2022-11-15T14:54:50;4.35;;;1.65;;
59145;SDS011;44928;53.074;6.646;2022-11-15T14:57:15;6.07;;;1.92;;
59145;SDS011;44928;53.074;6.646;2022-11-15T14:59:41;5.63;;;1.30;;
59145;SDS011;44928;53.074;6.646;2022-11-15T15:02:14;5.35;;;1.30;;
59145;SDS011;44928;53.074;6.646;2022-11-15T15:04:45;3.60;;;1.40;;
59145;SDS011;44928;53.074;6.646;2022-11-15T15:07:11;4.80;;;1.58;;
59145;SDS011;44928;53.074;6.646;2022-11-15T15:09:37;4.72;;;1.35;;
59145;SDS011;44928;53.074;6.646;2022-11-15T15:12:03;4.05;;;1.35;;
59145;SDS011;44928;53.074;6.646;2022-11-15T15:14:32;4.28;;;1.48;;
59145;SDS011;44928;53.074;6.646;2022-11-15T15:16:57;3.63;;;1.40;;
59145;SDS011;44928;53.074;6.646;2022-11-15T15:19:23;3.92;;;1.55;;
59145;SDS011;44928;53.074;6.646;2022-11-15T15:21:49;6.20;;;1.42;;
59145;SDS011;44928;53.074;6.646;2022-11-15T15:24:15;6.38;;;1.85;;
59145;SDS011;44928;53.074;6.646;2022-11-15T15:26:41;6.75;;;2.05;;
59145;SDS011;44928;53.074;6.646;2022-11-15T15:29:08;5.65;;;1.80;;
59145;SDS011;44928;53.074;6.646;2022-11-15T15:31:34;5.00;;;1.55;;
59145;SDS011;44928;53.074;6.646;2022-11-15T15:34:00;5.28;;;1.65;;
59145;SDS011;44928;53.074;6.646;2022-11-15T15:36:26;5.55;;;1.60;;
59145;SDS011;44928;53.074;6.646;2022-11-15T15:38:52;4.25;;;1.55;;
59145;SDS011;44928;53.074;6.646;2022-11-15T15:41:18;6.43;;;1.90;;
59145;SDS011;44928;53.074;6.646;2022-11-15T15:43:44;6.53;;;2.00;;
59145;SDS011;44928;53.074;6.646;2022-11-15T15:46:11;5.28;;;1.90;;
59145;SDS011;44928;53.074;6.646;2022-11-15T15:48:38;6.05;;;1.90;;
59145;SDS011;44928;53.074;6.646;2022-11-15T15:51:04;7.18;;;2.00;;
59145;SDS011;44928;53.074;6.646;2022-11-15T15:53:31;5.47;;;2.10;;
59145;SDS011;44928;53.074;6.646;2022-11-15T15:55:57;6.80;;;2.25;;
59145;SDS011;44928;53.074;6.646;2022-11-15T15:58:23;8.05;;;2.33;;
59145;SDS011;44928;53.074;6.646;2022-11-15T16:00:49;5.35;;;2.22;;
59145;SDS011;44928;53.074;6.646;2022-11-15T16:03:14;7.07;;;2.80;;
59145;SDS011;44928;53.074;6.646;2022-11-15T16:05:40;7.43;;;2.85;;
59145;SDS011;44928;53.074;6.646;2022-11-15T16:08:09;6.90;;;2.83;;
59145;SDS011;44928;53.074;6.646;2022-11-15T16:10:44;8.15;;;2.72;;
59145;SDS011;44928;53.074;6.646;2022-11-15T16:13:10;6.93;;;2.92;;
59145;SDS011;44928;53.074;6.646;2022-11-15T16:15:36;7.10;;;3.00;;
59145;SDS011;44928;53.074;6.646;2022-11-15T16:18:03;7.38;;;2.78;;
59145;SDS011;44928;53.074;6.646;2022-11-15T16:20:46;7.60;;;3.28;;
59145;SDS011;44928;53.074;6.646;2022-11-15T16:23:17;7.80;;;3.15;;
59145;SDS011;44928;53.074;6.646;2022-11-15T16:25:46;9.03;;;3.40;;
59145;SDS011;44928;53.074;6.646;2022-11-15T16:33:27;5.88;;;2.65;;
59145;SDS011;44928;53.074;6.646;2022-11-15T16:35:53;7.55;;;2.97;;
59145;SDS011;44928;53.074;6.646;2022-11-15T16:38:19;8.95;;;3.22;;
59145;SDS011;44928;53.074;6.646;2022-11-15T16:40:45;6.95;;;2.75;;
59145;SDS011;44928;53.074;6.646;2022-11-15T16:43:11;6.50;;;2.88;;
59145;SDS011;44928;53.074;6.646;2022-11-15T16:45:37;5.57;;;2.55;;
59145;SDS011;44928;53.074;6.646;2022-11-15T16:48:03;6.38;;;2.38;;
59145;SDS011;44928;53.074;6.646;2022-11-15T16:50:30;6.25;;;2.55;;
59145;SDS011;44928;53.074;6.646;2022-11-15T16:52:59;6.68;;;2.40;;
59145;SDS011;44928;53.074;6.646;2022-11-15T16:55:26;5.75;;;2.22;;
59145;SDS011;44928;53.074;6.646;2022-11-15T16:57:54;6.05;;;2.30;;
59145;SDS011;44928;53.074;6.646;2022-11-15T17:00:22;7.15;;;2.60;;
59145;SDS011;44928;53.074;6.646;2022-11-15T17:02:48;7.10;;;2.50;;
59145;SDS011;44928;53.074;6.646;2022-11-15T17:05:16;6.68;;;2.10;;
59145;SDS011;44928;53.074;6.646;2022-11-15T17:07:45;6.15;;;2.05;;
59145;SDS011;44928;53.074;6.646;2022-11-15T17:10:13;6.90;;;1.80;;
59145;SDS011;44928;53.074;6.646;2022-11-15T17:12:39;4.75;;;1.80;;
59145;SDS011;44928;53.074;6.646;2022-11-15T17:15:06;5.72;;;1.92;;
59145;SDS011;44928;53.074;6.646;2022-11-15T17:17:32;6.00;;;2.05;;
59145;SDS011;44928;53.074;6.646;2022-11-15T17:19:58;6.45;;;1.88;;
59145;SDS011;44928;53.074;6.646;2022-11-15T17:22:23;6.10;;;1.98;;